Wetterdaten: Woche 19.05.14 - 25.05.14 (KW21)
Datum Zeit Temp. A. Feuchte A. Luftdruck Regen Wind Richtung Sonnenschein ET UV Solar Taupunkt Windchill Windben
19.05.2014 00:00 9,2 C 96 % 1011,9 hPa 0,0 l/m 0,3 km/h (0 Bft) SO 0,00 h 0,000 mm 0,0 UV-I 0 W/m 8,6 C 9,2 C 0,7 km/h (0 Bft)
19.05.2014 01:00 9,0 C 95 % 1011,9 hPa 0,0 l/m 1,1 km/h (0 Bft) S 0,00 h 0,000 mm 0,0 UV-I 0 W/m 8,3 C 9,0 C 2,6 km/h (1 Bft)
19.05.2014 02:00 8,6 C 95 % 1011,8 hPa 0,0 l/m 4,3 km/h (1 Bft) S 0,00 h 0,000 mm 0,0 UV-I 0 W/m 7,8 C 8,2 C 7,5 km/h (2 Bft)
19.05.2014 03:00 8,1 C 96 % 1011,9 hPa 0,0 l/m 3,6 km/h (1 Bft) S-SO 0,00 h 0,000 mm 0,0 UV-I 0 W/m 7,5 C 8,1 C 6,1 km/h (2 Bft)
19.05.2014 04:00 7,9 C 96 % 1011,6 hPa 0,0 l/m 4,6 km/h (1 Bft) S 0,00 h 0,000 mm 0,0 UV-I 0 W/m 7,3 C 7,6 C 7,9 km/h (2 Bft)
19.05.2014 05:00 7,8 C 96 % 1011,6 hPa 0,0 l/m 2,1 km/h (1 Bft) S 0,00 h 0,000 mm 0,0 UV-I 8 W/m 7,2 C 7,8 C 4,5 km/h (1 Bft)
19.05.2014 06:00 7,8 C 96 % 1011,6 hPa 0,0 l/m 2,3 km/h (1 Bft) S-SW 0,07 h 0,000 mm 0,0 UV-I 32 W/m 7,3 C 7,8 C 4,5 km/h (1 Bft)
19.05.2014 07:00 8,2 C 97 % 1011,7 hPa 0,0 l/m 1,3 km/h (1 Bft) S 0,92 h 0,025 mm 0,5 UV-I 95 W/m 7,7 C 8,2 C 2,7 km/h (1 Bft)
19.05.2014 08:00 9,4 C 95 % 1012,0 hPa 0,0 l/m 4,2 km/h (1 Bft) S 1,00 h 0,051 mm 0,9 UV-I 168 W/m 8,7 C 9,4 C 6,7 km/h (2 Bft)
19.05.2014 09:00 11,3 C 91 % 1012,0 hPa 0,0 l/m 4,9 km/h (1 Bft) W 1,00 h 0,076 mm 2,1 UV-I 403 W/m 9,9 C 11,2 C 7,8 km/h (2 Bft)
19.05.2014 10:00 14,2 C 85 % 1011,9 hPa 0,0 l/m 3,3 km/h (1 Bft) W-SW 1,00 h 0,203 mm 3,9 UV-I 715 W/m 11,7 C 14,2 C 5,7 km/h (1 Bft)
19.05.2014 11:00 16,9 C 77 % 1011,6 hPa 0,0 l/m 4,1 km/h (1 Bft) SW 1,00 h 0,356 mm 5,0 UV-I 772 W/m 12,9 C 16,8 C 7,3 km/h (2 Bft)
19.05.2014 12:00 18,8 C 70 % 1011,3 hPa 0,0 l/m 5,8 km/h (2 Bft) SO 1,00 h 0,406 mm 5,8 UV-I 762 W/m 13,1 C 18,5 C 9,5 km/h (2 Bft)
19.05.2014 13:00 20,2 C 59 % 1011,1 hPa 0,0 l/m 10,2 km/h (2 Bft) S 1,00 h 0,457 mm 6,5 UV-I 853 W/m 11,9 C 18,9 C 15,4 km/h (3 Bft)
19.05.2014 14:00 20,7 C 53 % 1010,8 hPa 0,0 l/m 9,5 km/h (2 Bft) S-SO 1,00 h 0,560 mm 5,1 UV-I 666 W/m 10,7 C 19,6 C 14,2 km/h (3 Bft)
19.05.2014 15:00 21,3 C 48 % 1010,7 hPa 0,0 l/m 8,6 km/h (2 Bft) S-SO 1,00 h 0,457 mm 4,3 UV-I 666 W/m 9,8 C 20,5 C 13,0 km/h (3 Bft)
19.05.2014 16:00 21,9 C 43 % 1010,5 hPa 0,0 l/m 7,3 km/h (2 Bft) S-SO 1,00 h 0,457 mm 3,2 UV-I 619 W/m 8,9 C 21,3 C 11,5 km/h (2 Bft)
19.05.2014 17:00 21,2 C 45 % 1010,5 hPa 0,0 l/m 5,2 km/h (1 Bft) S 1,00 h 0,432 mm 1,5 UV-I 262 W/m 8,9 C 21,0 C 8,3 km/h (2 Bft)
19.05.2014 18:00 20,7 C 47 % 1010,3 hPa 0,0 l/m 1,9 km/h (1 Bft) SW 1,00 h 0,203 mm 0,8 UV-I 91 W/m 8,8 C 20,7 C 3,9 km/h (1 Bft)
19.05.2014 19:00 20,2 C 48 % 1010,3 hPa 0,0 l/m 0,4 km/h (0 Bft) S 0,55 h 0,076 mm 0,5 UV-I 52 W/m 8,9 C 20,2 C 1,3 km/h (1 Bft)
19.05.2014 20:00 18,7 C 59 % 1010,5 hPa 0,0 l/m 1,1 km/h (1 Bft) O 0,00 h 0,051 mm 0,0 UV-I 25 W/m 10,4 C 18,7 C 2,4 km/h (1 Bft)
19.05.2014 21:00 16,4 C 70 % 1011,0 hPa 0,0 l/m 3,3 km/h (1 Bft) O 0,00 h 0,025 mm 0,0 UV-I 0 W/m 11,0 C 16,4 C 5,6 km/h (1 Bft)
19.05.2014 22:00 15,2 C 79 % 1011,3 hPa 0,0 l/m 3,3 km/h (1 Bft) O-NO 0,00 h 0,026 mm 0,0 UV-I 0 W/m 11,5 C 15,2 C 6,4 km/h (2 Bft)
19.05.2014 23:00 14,5 C 83 % 1011,4 hPa 0,0 l/m 6,2 km/h (2 Bft) O 0,00 h 0,025 mm 0,0 UV-I 0 W/m 11,6 C 14,1 C 10,5 km/h (2 Bft)
20.05.2014 00:00 13,7 C 85 % 1011,7 hPa 0,0 l/m 5,8 km/h (2 Bft) O 0,00 h 0,025 mm 0,0 UV-I 0 W/m 11,3 C 13,5 C 9,3 km/h (2 Bft)
20.05.2014 01:00 13,3 C 87 % 1011,7 hPa 0,0 l/m 4,5 km/h (1 Bft) O 0,00 h 0,025 mm 0,0 UV-I 0 W/m 11,2 C 13,3 C 8,6 km/h (2 Bft)
20.05.2014 02:00 11,8 C 91 % 1012,0 hPa 0,0 l/m 1,1 km/h (1 Bft) N-NO 0,00 h 0,025 mm 0,0 UV-I 0 W/m 10,3 C 11,8 C 2,4 km/h (1 Bft)
20.05.2014 03:00 10,2 C 94 % 1012,3 hPa 0,0 l/m 0,0 km/h (0 Bft) N-NW 0,00 h 0,000 mm 0,0 UV-I 0 W/m 9,2 C 10,2 C 0,3 km/h (0 Bft)
20.05.2014 04:00 9,2 C 95 % 1012,4 hPa 0,0 l/m 0,0 km/h (0 Bft) N 0,00 h 0,000 mm 0,0 UV-I 0 W/m 8,4 C 9,2 C 0,1 km/h (0 Bft)
20.05.2014 05:00 8,4 C 95 % 1012,7 hPa 0,0 l/m 0,1 km/h (0 Bft) N 0,00 h 0,000 mm 0,0 UV-I 10 W/m 7,6 C 8,4 C 0,4 km/h (0 Bft)
20.05.2014 06:00 8,8 C 95 % 1013,0 hPa 0,0 l/m 0,0 km/h (0 Bft) N 0,00 h 0,000 mm 0,0 UV-I 24 W/m 8,0 C 8,8 C 0,1 km/h (0 Bft)
20.05.2014 07:00 12,1 C 92 % 1013,2 hPa 0,0 l/m 0,4 km/h (0 Bft) O-SO 0,67 h 0,000 mm 0,9 UV-I 208 W/m 10,7 C 12,1 C 1,2 km/h (1 Bft)
20.05.2014 08:00 16,3 C 82 % 1013,4 hPa 0,0 l/m 2,6 km/h (1 Bft) SO 1,00 h 0,102 mm 1,7 UV-I 444 W/m 13,3 C 16,3 C 5,1 km/h (1 Bft)
20.05.2014 09:00 18,8 C 73 % 1013,4 hPa 0,0 l/m 3,5 km/h (1 Bft) SO 1,00 h 0,254 mm 2,9 UV-I 602 W/m 13,9 C 18,8 C 6,4 km/h (2 Bft)
20.05.2014 10:00 20,8 C 66 % 1013,3 hPa 0,0 l/m 3,7 km/h (1 Bft) SO 1,00 h 0,356 mm 4,3 UV-I 730 W/m 14,2 C 20,7 C 6,6 km/h (2 Bft)
20.05.2014 11:00 22,8 C 56 % 1013,4 hPa 0,0 l/m 3,6 km/h (1 Bft) SO 1,00 h 0,432 mm 5,7 UV-I 859 W/m 13,5 C 22,7 C 6,7 km/h (2 Bft)
20.05.2014 12:00 23,8 C 47 % 1013,3 hPa 0,0 l/m 4,2 km/h (1 Bft) O-NO 1,00 h 0,533 mm 6,0 UV-I 928 W/m 11,8 C 23,7 C 8,0 km/h (2 Bft)
20.05.2014 13:00 23,7 C 45 % 1013,2 hPa 0,0 l/m 4,6 km/h (1 Bft) NO 1,00 h 0,559 mm 5,2 UV-I 665 W/m 11,2 C 23,5 C 8,6 km/h (2 Bft)
20.05.2014 14:00 24,7 C 42 % 1013,2 hPa 0,0 l/m 5,6 km/h (1 Bft) S-SO 1,00 h 0,432 mm 5,7 UV-I 853 W/m 11,0 C 24,5 C 9,6 km/h (2 Bft)
20.05.2014 15:00 23,7 C 43 % 1013,2 hPa 0,0 l/m 5,6 km/h (1 Bft) N 1,00 h 0,584 mm 2,4 UV-I 321 W/m 10,2 C 23,4 C 8,7 km/h (2 Bft)
20.05.2014 16:00 23,6 C 46 % 1013,2 hPa 0,0 l/m 8,9 km/h (2 Bft) N-NO 1,00 h 0,229 mm 2,4 UV-I 362 W/m 11,4 C 22,9 C 13,2 km/h (3 Bft)
20.05.2014 17:00 24,0 C 43 % 1013,0 hPa 0,0 l/m 6,8 km/h (2 Bft) N-NO 1,00 h 0,305 mm 1,8 UV-I 380 W/m 10,8 C 23,6 C 11,1 km/h (2 Bft)
20.05.2014 18:00 23,1 C 45 % 1013,0 hPa 0,0 l/m 5,5 km/h (1 Bft) O-NO 1,00 h 0,279 mm 0,8 UV-I 78 W/m 10,3 C 22,9 C 9,8 km/h (2 Bft)
20.05.2014 19:00 22,0 C 51 % 1013,2 hPa 0,0 l/m 3,2 km/h (1 Bft) O 0,28 h 0,102 mm 0,6 UV-I 45 W/m 11,3 C 21,9 C 6,9 km/h (2 Bft)
20.05.2014 20:00 20,1 C 59 % 1013,4 hPa 0,0 l/m 3,8 km/h (1 Bft) O 0,00 h 0,051 mm 0,0 UV-I 15 W/m 11,7 C 20,0 C 7,7 km/h (2 Bft)
20.05.2014 21:00 18,0 C 68 % 1013,8 hPa 0,0 l/m 0,4 km/h (0 Bft) O 0,00 h 0,025 mm 0,0 UV-I 0 W/m 11,8 C 18,0 C 1,4 km/h (1 Bft)
20.05.2014 22:00 16,1 C 75 % 1014,1 hPa 0,0 l/m 0,4 km/h (0 Bft) O-NO 0,00 h 0,000 mm 0,0 UV-I 0 W/m 11,7 C 16,1 C 1,2 km/h (1 Bft)
20.05.2014 23:00 14,3 C 83 % 1014,1 hPa 0,0 l/m 0,0 km/h (0 Bft) O 0,00 h 0,025 mm 0,0 UV-I 0 W/m 11,4 C 14,3 C 0,1 km/h (0 Bft)
21.05.2014 00:00 13,2 C 88 % 1014,3 hPa 0,0 l/m 0,7 km/h (0 Bft) N 0,00 h 0,025 mm 0,0 UV-I 0 W/m 11,2 C 13,2 C 1,6 km/h (1 Bft)
21.05.2014 01:00 12,2 C 90 % 1014,4 hPa 0,0 l/m 0,0 km/h (0 Bft) N 0,00 h 0,000 mm 0,0 UV-I 0 W/m 10,6 C 12,2 C 0,3 km/h (0 Bft)
21.05.2014 02:00 11,3 C 92 % 1014,5 hPa 0,0 l/m 0,1 km/h (0 Bft) N 0,00 h 0,000 mm 0,0 UV-I 0 W/m 10,0 C 11,3 C 0,2 km/h (0 Bft)
21.05.2014 03:00 10,4 C 93 % 1014,7 hPa 0,0 l/m 0,1 km/h (0 Bft) S-SO 0,00 h 0,000 mm 0,0 UV-I 0 W/m 9,3 C 10,4 C 0,5 km/h (0 Bft)
21.05.2014 04:00 9,8 C 94 % 1014,8 hPa 0,0 l/m 0,2 km/h (0 Bft) N-NO 0,00 h 0,000 mm 0,0 UV-I 0 W/m 8,9 C 9,8 C 0,7 km/h (0 Bft)
21.05.2014 05:00 9,3 C 94 % 1014,9 hPa 0,0 l/m 0,0 km/h (0 Bft) N 0,00 h 0,000 mm 0,0 UV-I 11 W/m 8,4 C 9,3 C 0,1 km/h (0 Bft)
21.05.2014 06:00 9,7 C 94 % 1015,2 hPa 0,0 l/m 0,0 km/h (0 Bft) N 0,00 h 0,000 mm 0,0 UV-I 33 W/m 8,7 C 9,7 C 0,1 km/h (0 Bft)
21.05.2014 07:00 12,5 C 89 % 1015,2 hPa 0,0 l/m 1,0 km/h (0 Bft) N 0,97 h 0,025 mm 0,8 UV-I 188 W/m 10,7 C 12,5 C 1,8 km/h (1 Bft)
21.05.2014 08:00 16,6 C 79 % 1015,2 hPa 0,0 l/m 0,4 km/h (0 Bft) N 1,00 h 0,102 mm 1,6 UV-I 395 W/m 13,0 C 16,6 C 1,7 km/h (1 Bft)
21.05.2014 09:00 20,8 C 64 % 1014,9 hPa 0,0 l/m 1,3 km/h (1 Bft) NO 1,00 h 0,229 mm 3,0 UV-I 596 W/m 13,8 C 20,8 C 2,7 km/h (1 Bft)
21.05.2014 10:00 22,8 C 51 % 1014,7 hPa 0,0 l/m 5,7 km/h (1 Bft) SO 1,00 h 0,356 mm 4,4 UV-I 699 W/m 12,0 C 22,5 C 10,0 km/h (2 Bft)
21.05.2014 11:00 23,8 C 45 % 1014,5 hPa 0,0 l/m 7,2 km/h (2 Bft) O-SO 1,00 h 0,457 mm 5,9 UV-I 817 W/m 11,1 C 23,4 C 12,3 km/h (3 Bft)
21.05.2014 12:00 24,7 C 40 % 1014,1 hPa 0,0 l/m 9,1 km/h (2 Bft) SO 1,00 h 0,559 mm 6,8 UV-I 877 W/m 10,2 C 24,1 C 14,8 km/h (3 Bft)
21.05.2014 13:00 25,3 C 36 % 1013,6 hPa 0,0 l/m 11,1 km/h (2 Bft) SO 1,00 h 0,635 mm 6,9 UV-I 879 W/m 8,9 C 24,3 C 17,6 km/h (3 Bft)
21.05.2014 14:00 25,9 C 32 % 1013,1 hPa 0,0 l/m 9,3 km/h (2 Bft) SO 1,00 h 0,660 mm 6,2 UV-I 834 W/m 7,8 C 25,3 C 15,5 km/h (3 Bft)
21.05.2014 15:00 25,9 C 30 % 1012,7 hPa 0,0 l/m 8,6 km/h (2 Bft) SO 1,00 h 0,635 mm 4,7 UV-I 697 W/m 6,8 C 25,4 C 14,5 km/h (3 Bft)
21.05.2014 16:00 25,9 C 31 % 1012,2 hPa 0,0 l/m 7,3 km/h (2 Bft) SO 1,00 h 0,533 mm 3,1 UV-I 532 W/m 7,3 C 25,5 C 12,7 km/h (3 Bft)
21.05.2014 17:00 24,8 C 35 % 1011,8 hPa 0,0 l/m 6,6 km/h (2 Bft) O-SO 1,00 h 0,432 mm 1,7 UV-I 304 W/m 8,4 C 24,5 C 12,0 km/h (2 Bft)
21.05.2014 18:00 23,8 C 39 % 1011,4 hPa 0,0 l/m 5,9 km/h (2 Bft) SO 1,00 h 0,254 mm 0,8 UV-I 128 W/m 9,1 C 23,6 C 10,6 km/h (2 Bft)
21.05.2014 19:00 23,1 C 42 % 1010,9 hPa 0,0 l/m 3,4 km/h (1 Bft) SO 0,75 h 0,152 mm 0,5 UV-I 75 W/m 9,4 C 23,1 C 7,3 km/h (2 Bft)
21.05.2014 20:00 21,9 C 47 % 1010,7 hPa 0,0 l/m 2,5 km/h (1 Bft) O-SO 0,00 h 0,076 mm 0,0 UV-I 19 W/m 10,1 C 21,9 C 5,3 km/h (1 Bft)
21.05.2014 21:00 20,5 C 51 % 1010,7 hPa 0,0 l/m 5,4 km/h (1 Bft) SO 0,00 h 0,051 mm 0,0 UV-I 0 W/m 10,1 C 20,3 C 10,0 km/h (2 Bft)
21.05.2014 22:00 19,8 C 55 % 1010,7 hPa 0,0 l/m 5,1 km/h (1 Bft) SO 0,00 h 0,051 mm 0,0 UV-I 0 W/m 10,5 C 19,6 C 9,7 km/h (2 Bft)
21.05.2014 23:00 18,6 C 61 % 1010,4 hPa 0,0 l/m 2,9 km/h (1 Bft) O-NO 0,00 h 0,051 mm 0,0 UV-I 0 W/m 10,9 C 18,5 C 6,0 km/h (2 Bft)
22.05.2014 00:00 17,4 C 67 % 1010,1 hPa 0,0 l/m 5,6 km/h (1 Bft) O 0,00 h 0,051 mm 0,0 UV-I 0 W/m 11,2 C 17,2 C 10,1 km/h (2 Bft)
22.05.2014 01:00 17,0 C 70 % 1009,5 hPa 0,0 l/m 4,2 km/h (1 Bft) O 0,00 h 0,051 mm 0,0 UV-I 0 W/m 11,5 C 16,9 C 8,1 km/h (2 Bft)
22.05.2014 02:00 15,9 C 75 % 1009,1 hPa 0,0 l/m 5,6 km/h (1 Bft) O-NO 0,00 h 0,025 mm 0,0 UV-I 0 W/m 11,6 C 15,8 C 10,2 km/h (2 Bft)
22.05.2014 03:00 15,6 C 78 % 1008,9 hPa 0,0 l/m 4,6 km/h (1 Bft) O-NO 0,00 h 0,025 mm 0,0 UV-I 0 W/m 11,7 C 15,4 C 8,1 km/h (2 Bft)
22.05.2014 04:00 15,1 C 80 % 1008,6 hPa 0,0 l/m 5,4 km/h (1 Bft) O 0,00 h 0,000 mm 0,0 UV-I 0 W/m 11,7 C 15,0 C 10,0 km/h (2 Bft)
22.05.2014 05:00 13,4 C 86 % 1008,8 hPa 0,0 l/m 0,5 km/h (0 Bft) O 0,00 h 0,025 mm 0,0 UV-I 17 W/m 11,1 C 13,4 C 1,6 km/h (1 Bft)
22.05.2014 06:00 13,5 C 87 % 1009,0 hPa 0,0 l/m 0,6 km/h (0 Bft) O-NO 0,00 h 0,000 mm 0,0 UV-I 31 W/m 11,4 C 13,5 C 1,9 km/h (1 Bft)
22.05.2014 07:00 15,9 C 81 % 1009,2 hPa 0,0 l/m 0,6 km/h (0 Bft) O-SO 0,90 h 0,025 mm 0,9 UV-I 201 W/m 12,6 C 15,9 C 1,8 km/h (1 Bft)
22.05.2014 08:00 19,0 C 71 % 1009,1 hPa 0,0 l/m 2,8 km/h (1 Bft) O 1,00 h 0,102 mm 1,7 UV-I 412 W/m 13,5 C 18,9 C 5,3 km/h (1 Bft)
22.05.2014 09:00 21,3 C 62 % 1009,0 hPa 0,0 l/m 3,9 km/h (1 Bft) S-SO 1,00 h 0,254 mm 3,1 UV-I 587 W/m 13,7 C 21,3 C 6,7 km/h (2 Bft)
22.05.2014 10:00 23,5 C 54 % 1008,7 hPa 0,0 l/m 4,8 km/h (1 Bft) SO 1,00 h 0,356 mm 4,5 UV-I 707 W/m 13,7 C 23,4 C 7,8 km/h (2 Bft)
22.05.2014 11:00 25,0 C 48 % 1008,7 hPa 0,0 l/m 7,3 km/h (2 Bft) W-SW 1,00 h 0,457 mm 5,8 UV-I 800 W/m 13,4 C 24,7 C 11,3 km/h (2 Bft)
22.05.2014 12:00 26,4 C 42 % 1008,6 hPa 0,0 l/m 7,7 km/h (2 Bft) S 1,00 h 0,559 mm 6,7 UV-I 853 W/m 12,4 C 26,0 C 11,8 km/h (2 Bft)
22.05.2014 13:00 27,5 C 36 % 1008,4 hPa 0,0 l/m 6,7 km/h (2 Bft) S-SO 1,00 h 0,610 mm 6,7 UV-I 850 W/m 11,2 C 27,3 C 10,6 km/h (2 Bft)
22.05.2014 14:00 28,1 C 34 % 1008,0 hPa 0,0 l/m 6,7 km/h (2 Bft) S 1,00 h 0,635 mm 6,0 UV-I 798 W/m 10,5 C 27,9 C 10,5 km/h (2 Bft)
22.05.2014 15:00 28,5 C 34 % 1007,6 hPa 0,0 l/m 5,9 km/h (2 Bft) S-SO 1,00 h 0,610 mm 4,6 UV-I 701 W/m 11,3 C 28,4 C 9,1 km/h (2 Bft)
22.05.2014 16:00 28,6 C 33 % 1007,3 hPa 0,0 l/m 4,5 km/h (1 Bft) S 1,00 h 0,533 mm 3,1 UV-I 572 W/m 10,7 C 28,6 C 7,4 km/h (2 Bft)
22.05.2014 17:00 28,3 C 32 % 1006,9 hPa 0,0 l/m 3,4 km/h (1 Bft) O-SO 1,00 h 0,432 mm 1,6 UV-I 329 W/m 10,2 C 28,3 C 5,9 km/h (2 Bft)
22.05.2014 18:00 27,7 C 33 % 1006,6 hPa 0,0 l/m 3,6 km/h (1 Bft) S 1,00 h 0,254 mm 0,8 UV-I 114 W/m 10,0 C 27,7 C 5,7 km/h (1 Bft)
22.05.2014 19:00 27,0 C 37 % 1006,3 hPa 0,0 l/m 4,6 km/h (1 Bft) SO 0,98 h 0,127 mm 0,5 UV-I 73 W/m 11,1 C 26,9 C 8,1 km/h (2 Bft)
22.05.2014 20:00 25,0 C 49 % 1006,0 hPa 0,0 l/m 6,1 km/h (2 Bft) SO 0,00 h 0,102 mm 0,0 UV-I 19 W/m 13,4 C 24,8 C 11,0 km/h (2 Bft)
22.05.2014 21:00 23,0 C 57 % 1005,7 hPa 0,0 l/m 4,4 km/h (1 Bft) SO 0,00 h 0,076 mm 0,0 UV-I 0 W/m 14,1 C 23,0 C 8,4 km/h (2 Bft)
22.05.2014 22:00 21,6 C 62 % 1006,0 hPa 0,0 l/m 3,1 km/h (1 Bft) O-NO 0,00 h 0,025 mm 0,0 UV-I 0 W/m 13,9 C 21,6 C 5,8 km/h (2 Bft)
22.05.2014 23:00 20,6 C 67 % 1006,2 hPa 0,0 l/m 4,4 km/h (1 Bft) O-NO 0,00 h 0,051 mm 0,0 UV-I 0 W/m 14,2 C 20,4 C 7,8 km/h (2 Bft)
23.05.2014 00:00 20,0 C 67 % 1006,7 hPa 0,0 l/m 3,3 km/h (1 Bft) W 0,00 h 0,051 mm 0,0 UV-I 0 W/m 13,8 C 19,9 C 5,5 km/h (1 Bft)
23.05.2014 01:00 18,4 C 71 % 1006,6 hPa 0,0 l/m 5,6 km/h (1 Bft) N 0,00 h 0,051 mm 0,0 UV-I 0 W/m 13,0 C 18,1 C 8,4 km/h (2 Bft)
23.05.2014 02:00 16,6 C 75 % 1006,8 hPa 0,0 l/m 2,2 km/h (1 Bft) S 0,00 h 0,051 mm 0,0 UV-I 0 W/m 12,1 C 16,6 C 3,7 km/h (1 Bft)
23.05.2014 03:00 15,0 C 81 % 1006,8 hPa 0,0 l/m 2,3 km/h (1 Bft) S-SW 0,00 h 0,025 mm 0,0 UV-I 0 W/m 11,9 C 15,0 C 4,2 km/h (1 Bft)
23.05.2014 04:00 13,8 C 87 % 1007,1 hPa 0,0 l/m 0,9 km/h (0 Bft) S-SW 0,00 h 0,000 mm 0,0 UV-I 0 W/m 11,7 C 13,8 C 1,8 km/h (1 Bft)
23.05.2014 05:00 13,1 C 90 % 1006,5 hPa 0,0 l/m 0,5 km/h (0 Bft) O 0,00 h 0,025 mm 0,0 UV-I 13 W/m 11,5 C 13,1 C 1,4 km/h (1 Bft)
23.05.2014 06:00 13,4 C 90 % 1006,3 hPa 0,0 l/m 1,1 km/h (1 Bft) N 0,30 h 0,000 mm 0,0 UV-I 42 W/m 11,8 C 13,4 C 2,6 km/h (1 Bft)
23.05.2014 07:00 14,7 C 86 % 1006,2 hPa 0,0 l/m 2,7 km/h (1 Bft) N-NW 1,00 h 0,025 mm 0,8 UV-I 185 W/m 12,4 C 14,7 C 4,8 km/h (1 Bft)
23.05.2014 08:00 16,8 C 79 % 1006,1 hPa 0,0 l/m 2,4 km/h (1 Bft) NW 1,00 h 0,102 mm 1,6 UV-I 383 W/m 13,1 C 16,8 C 4,3 km/h (1 Bft)
23.05.2014 09:00 18,9 C 73 % 1006,4 hPa 0,0 l/m 4,3 km/h (1 Bft) W-NW 1,00 h 0,203 mm 2,9 UV-I 556 W/m 13,9 C 18,9 C 7,1 km/h (2 Bft)
23.05.2014 10:00 20,2 C 69 % 1006,8 hPa 0,0 l/m 6,6 km/h (2 Bft) W-NW 1,00 h 0,330 mm 3,7 UV-I 578 W/m 14,4 C 19,8 C 10,4 km/h (2 Bft)
23.05.2014 11:00 19,5 C 71 % 1007,5 hPa 0,0 l/m 11,0 km/h (2 Bft) W-SW 1,00 h 0,356 mm 2,9 UV-I 332 W/m 14,1 C 17,8 C 16,9 km/h (3 Bft)
23.05.2014 12:00 17,3 C 76 % 1008,9 hPa 0,0 l/m 14,7 km/h (3 Bft) W-SW 1,00 h 0,229 mm 2,1 UV-I 214 W/m 13,1 C 14,1 C 22,3 km/h (4 Bft)
23.05.2014 13:00 16,2 C 74 % 1009,8 hPa 0,0 l/m 12,8 km/h (3 Bft) W 1,00 h 0,152 mm 2,4 UV-I 267 W/m 11,4 C 13,4 C 19,8 km/h (4 Bft)
23.05.2014 14:00 17,4 C 69 % 1009,8 hPa 0,0 l/m 7,2 km/h (2 Bft) W-NW 1,00 h 0,178 mm 3,0 UV-I 357 W/m 11,6 C 16,6 C 11,3 km/h (2 Bft)
23.05.2014 15:00 17,4 C 70 % 1009,9 hPa 0,0 l/m 8,4 km/h (2 Bft) W 1,00 h 0,229 mm 1,9 UV-I 218 W/m 11,7 C 16,4 C 12,5 km/h (3 Bft)
23.05.2014 16:00 17,6 C 69 % 1009,9 hPa 0,0 l/m 7,6 km/h (2 Bft) W-NW 1,00 h 0,152 mm 1,9 UV-I 257 W/m 11,9 C 17,0 C 11,0 km/h (2 Bft)
23.05.2014 17:00 17,9 C 68 % 1010,2 hPa 0,0 l/m 5,0 km/h (1 Bft) W-NW 1,00 h 0,178 mm 1,1 UV-I 165 W/m 12,0 C 17,7 C 8,1 km/h (2 Bft)
23.05.2014 18:00 17,1 C 72 % 1010,9 hPa 0,0 l/m 4,3 km/h (1 Bft) N 0,10 h 0,127 mm 0,0 UV-I 30 W/m 12,0 C 17,0 C 7,1 km/h (2 Bft)
23.05.2014 19:00 15,9 C 79 % 1010,6 hPa 0,0 l/m 2,6 km/h (1 Bft) N 0,00 h 0,025 mm 0,0 UV-I 27 W/m 12,3 C 15,8 C 4,6 km/h (1 Bft)
23.05.2014 20:00 14,8 C 85 % 1010,5 hPa 0,0 l/m 1,9 km/h (1 Bft) N 0,00 h 0,025 mm 0,0 UV-I 13 W/m 12,4 C 14,8 C 3,6 km/h (1 Bft)
23.05.2014 21:00 13,7 C 90 % 1011,1 hPa 0,0 l/m 0,6 km/h (0 Bft) SO 0,00 h 0,000 mm 0,0 UV-I 0 W/m 12,2 C 13,7 C 1,7 km/h (1 Bft)
23.05.2014 22:00 12,7 C 93 % 1011,6 hPa 0,0 l/m 0,2 km/h (0 Bft) O 0,00 h 0,000 mm 0,0 UV-I 0 W/m 11,5 C 12,7 C 0,9 km/h (0 Bft)
23.05.2014 23:00 11,7 C 94 % 1011,8 hPa 0,0 l/m 0,1 km/h (0 Bft) SO 0,00 h 0,000 mm 0,0 UV-I 0 W/m 10,8 C 11,7 C 0,5 km/h (0 Bft)
24.05.2014 00:00 11,0 C 95 % 1011,9 hPa 0,0 l/m 0,6 km/h (0 Bft) O 0,00 h 0,000 mm 0,0 UV-I 0 W/m 10,2 C 11,0 C 1,6 km/h (1 Bft)
24.05.2014 01:00 10,7 C 95 % 1011,7 hPa 0,0 l/m 0,6 km/h (0 Bft) NO 0,00 h 0,000 mm 0,0 UV-I 0 W/m 10,0 C 10,7 C 1,5 km/h (1 Bft)
24.05.2014 02:00 11,0 C 95 % 1011,5 hPa 0,0 l/m 1,2 km/h (1 Bft) NO 0,00 h 0,000 mm 0,0 UV-I 0 W/m 10,1 C 11,0 C 2,4 km/h (1 Bft)
24.05.2014 03:00 10,5 C 94 % 1011,2 hPa 0,0 l/m 0,0 km/h (0 Bft) N 0,00 h 0,000 mm 0,0 UV-I 0 W/m 9,6 C 10,5 C 0,1 km/h (0 Bft)
24.05.2014 04:00 9,7 C 95 % 1011,4 hPa 0,0 l/m 0,2 km/h (0 Bft) N 0,00 h 0,000 mm 0,0 UV-I 0 W/m 8,9 C 9,7 C 0,5 km/h (0 Bft)
24.05.2014 05:00 9,4 C 96 % 1011,5 hPa 0,0 l/m 0,2 km/h (0 Bft) S-SO 0,00 h 0,000 mm 0,0 UV-I 11 W/m 8,8 C 9,4 C 0,4 km/h (0 Bft)
24.05.2014 06:00 10,6 C 96 % 1011,7 hPa 0,0 l/m 0,8 km/h (0 Bft) N 0,35 h 0,000 mm 0,0 UV-I 42 W/m 9,9 C 10,6 C 1,6 km/h (1 Bft)
24.05.2014 07:00 13,0 C 94 % 1011,9 hPa 0,0 l/m 2,5 km/h (1 Bft) N-NW 0,97 h 0,025 mm 0,6 UV-I 92 W/m 12,0 C 13,0 C 4,6 km/h (1 Bft)
24.05.2014 08:00 15,1 C 89 % 1012,1 hPa 0,0 l/m 0,9 km/h (0 Bft) N 1,00 h 0,051 mm 1,2 UV-I 215 W/m 13,3 C 15,1 C 2,4 km/h (1 Bft)
24.05.2014 09:00 17,6 C 81 % 1012,3 hPa 0,0 l/m 2,5 km/h (1 Bft) W 1,00 h 0,127 mm 3,0 UV-I 559 W/m 14,2 C 17,6 C 4,5 km/h (1 Bft)
24.05.2014 10:00 19,3 C 72 % 1012,1 hPa 0,0 l/m 2,2 km/h (1 Bft) O-NO 1,00 h 0,305 mm 3,6 UV-I 509 W/m 14,1 C 19,3 C 4,3 km/h (1 Bft)
24.05.2014 11:00 17,4 C 80 % 1012,4 hPa 6,8 l/m 4,1 km/h (1 Bft) NW 0,43 h 0,305 mm 1,1 UV-I 64 W/m 13,9 C 17,2 C 6,7 km/h (2 Bft)
24.05.2014 12:00 14,8 C 88 % 1013,5 hPa 4,2 l/m 5,0 km/h (1 Bft) W-NW 0,83 h 0,051 mm 4,9 UV-I 496 W/m 12,7 C 14,6 C 8,3 km/h (2 Bft)
24.05.2014 13:00 17,1 C 81 % 1013,6 hPa 0,0 l/m 5,3 km/h (1 Bft) NW 1,00 h 0,279 mm 5,3 UV-I 637 W/m 13,8 C 16,9 C 8,3 km/h (2 Bft)
24.05.2014 14:00 14,9 C 86 % 1014,3 hPa 4,4 l/m 6,7 km/h (2 Bft) W 0,67 h 0,356 mm 1,8 UV-I 123 W/m 12,6 C 14,2 C 10,2 km/h (2 Bft)
24.05.2014 15:00 16,8 C 81 % 1014,4 hPa 0,0 l/m 6,6 km/h (2 Bft) NW 1,00 h 0,076 mm 4,5 UV-I 726 W/m 13,5 C 16,3 C 9,8 km/h (2 Bft)
24.05.2014 16:00 17,8 C 73 % 1014,8 hPa 0,2 l/m 7,7 km/h (2 Bft) N 1,00 h 0,406 mm 3,2 UV-I 555 W/m 13,0 C 16,9 C 11,8 km/h (2 Bft)
24.05.2014 17:00 17,6 C 71 % 1015,0 hPa 0,0 l/m 4,7 km/h (1 Bft) N 1,00 h 0,330 mm 1,9 UV-I 338 W/m 12,4 C 17,4 C 7,6 km/h (2 Bft)
24.05.2014 18:00 17,2 C 71 % 1014,9 hPa 0,0 l/m 2,7 km/h (1 Bft) N-NW 0,90 h 0,203 mm 0,9 UV-I 56 W/m 11,7 C 17,2 C 4,8 km/h (1 Bft)
24.05.2014 19:00 17,1 C 72 % 1015,3 hPa 0,0 l/m 1,8 km/h (1 Bft) W 0,25 h 0,051 mm 0,5 UV-I 42 W/m 12,0 C 17,1 C 3,4 km/h (1 Bft)
24.05.2014 20:00 16,2 C 80 % 1015,8 hPa 0,0 l/m 0,4 km/h (0 Bft) SW 0,00 h 0,025 mm 0,0 UV-I 16 W/m 12,7 C 16,2 C 1,4 km/h (1 Bft)
24.05.2014 21:00 14,2 C 88 % 1016,9 hPa 0,0 l/m 0,3 km/h (0 Bft) W-NW 0,00 h 0,025 mm 0,0 UV-I 0 W/m 12,3 C 14,2 C 0,9 km/h (0 Bft)
24.05.2014 22:00 13,0 C 91 % 1017,7 hPa 0,0 l/m 1,3 km/h (1 Bft) O-NO 0,00 h 0,000 mm 0,0 UV-I 0 W/m 11,6 C 13,0 C 2,2 km/h (1 Bft)
24.05.2014 23:00 11,8 C 94 % 1018,2 hPa 0,0 l/m 0,2 km/h (0 Bft) O-SO 0,00 h 0,000 mm 0,0 UV-I 0 W/m 10,8 C 11,8 C 0,6 km/h (0 Bft)
25.05.2014 00:00 10,8 C 95 % 1018,7 hPa 0,0 l/m 0,0 km/h (0 Bft) N 0,00 h 0,000 mm 0,0 UV-I 0 W/m 10,0 C 10,8 C 0,1 km/h (0 Bft)
25.05.2014 01:00 9,8 C 95 % 1019,1 hPa 0,0 l/m 0,0 km/h (0 Bft) N 0,00 h 0,000 mm 0,0 UV-I 0 W/m 9,0 C 9,8 C 0,1 km/h (0 Bft)
25.05.2014 02:00 8,9 C 96 % 1019,5 hPa 0,0 l/m 0,6 km/h (0 Bft) O-NO 0,00 h 0,000 mm 0,0 UV-I 0 W/m 8,3 C 8,9 C 1,7 km/h (1 Bft)
25.05.2014 03:00 7,8 C 96 % 1019,6 hPa 0,0 l/m 0,0 km/h (0 Bft) N 0,00 h 0,000 mm 0,0 UV-I 0 W/m 7,3 C 7,8 C 0,1 km/h (0 Bft)
25.05.2014 04:00 7,0 C 96 % 1019,9 hPa 0,0 l/m 0,0 km/h (0 Bft) N 0,00 h 0,000 mm 0,0 UV-I 0 W/m 6,4 C 7,0 C 0,1 km/h (0 Bft)
25.05.2014 05:00 6,0 C 96 % 1020,4 hPa 0,0 l/m 0,1 km/h (0 Bft) O-NO 0,00 h 0,000 mm 0,0 UV-I 10 W/m 5,4 C 6,0 C 0,2 km/h (0 Bft)
25.05.2014 06:00 6,1 C 97 % 1020,6 hPa 0,0 l/m 0,0 km/h (0 Bft) N 0,00 h 0,000 mm 0,0 UV-I 22 W/m 5,7 C 6,1 C 0,2 km/h (0 Bft)
25.05.2014 07:00 8,9 C 96 % 1020,6 hPa 0,0 l/m 0,5 km/h (0 Bft) S 0,70 h 0,000 mm 1,0 UV-I 236 W/m 8,2 C 8,9 C 1,1 km/h (1 Bft)
25.05.2014 08:00 13,0 C 83 % 1020,7 hPa 0,0 l/m 1,5 km/h (1 Bft) N 1,00 h 0,102 mm 1,8 UV-I 488 W/m 10,1 C 13,0 C 3,2 km/h (1 Bft)
25.05.2014 09:00 15,5 C 62 % 1020,9 hPa 0,0 l/m 3,7 km/h (1 Bft) N-NW 1,00 h 0,254 mm 3,3 UV-I 599 W/m 8,3 C 15,5 C 6,3 km/h (2 Bft)
25.05.2014 10:00 17,3 C 56 % 1020,8 hPa 0,0 l/m 2,9 km/h (1 Bft) O-NO 1,00 h 0,330 mm 4,9 UV-I 753 W/m 8,5 C 17,3 C 5,0 km/h (1 Bft)
25.05.2014 11:00 19,2 C 48 % 1020,8 hPa 0,0 l/m 3,3 km/h (1 Bft) N-NW 1,00 h 0,432 mm 6,2 UV-I 828 W/m 8,0 C 19,1 C 6,2 km/h (2 Bft)
25.05.2014 12:00 20,6 C 40 % 1020,3 hPa 0,0 l/m 5,4 km/h (1 Bft) N 1,00 h 0,483 mm 7,0 UV-I 865 W/m 6,7 C 20,4 C 9,1 km/h (2 Bft)
25.05.2014 13:00 22,1 C 37 % 1019,6 hPa 0,0 l/m 8,2 km/h (2 Bft) N-NO 1,00 h 0,559 mm 7,2 UV-I 879 W/m 6,7 C 21,4 C 12,6 km/h (3 Bft)
25.05.2014 14:00 23,1 C 40 % 1018,8 hPa 0,0 l/m 6,9 km/h (2 Bft) N 1,00 h 0,610 mm 6,4 UV-I 827 W/m 8,5 C 22,7 C 11,1 km/h (2 Bft)
25.05.2014 15:00 23,5 C 41 % 1018,1 hPa 0,0 l/m 9,6 km/h (2 Bft) N-NO 1,00 h 0,559 mm 5,2 UV-I 752 W/m 9,5 C 22,6 C 14,6 km/h (3 Bft)
25.05.2014 16:00 23,2 C 40 % 1017,5 hPa 0,0 l/m 6,6 km/h (2 Bft) O-NO 1,00 h 0,533 mm 3,6 UV-I 623 W/m 9,0 C 22,9 C 12,0 km/h (2 Bft)
25.05.2014 17:00 22,5 C 44 % 1017,2 hPa 0,0 l/m 6,8 km/h (2 Bft) O 1,00 h 0,432 mm 2,0 UV-I 350 W/m 9,8 C 22,1 C 12,1 km/h (2 Bft)
25.05.2014 18:00 21,2 C 43 % 1017,1 hPa 0,0 l/m 9,2 km/h (2 Bft) O-NO 0,70 h 0,279 mm 1,0 UV-I 57 W/m 8,0 C 20,1 C 15,8 km/h (3 Bft)
25.05.2014 19:00 20,1 C 41 % 1017,1 hPa 0,0 l/m 6,2 km/h (2 Bft) NO 0,00 h 0,127 mm 0,0 UV-I 27 W/m 6,5 C 19,7 C 11,5 km/h (2 Bft)
25.05.2014 20:00 18,6 C 54 % 1017,3 hPa 0,0 l/m 3,7 km/h (1 Bft) N-NO 0,00 h 0,076 mm 0,0 UV-I 13 W/m 9,0 C 18,6 C 7,1 km/h (2 Bft)
25.05.2014 21:00 16,8 C 62 % 1017,5 hPa 0,0 l/m 2,3 km/h (1 Bft) N-NO 0,00 h 0,025 mm 0,0 UV-I 0 W/m 9,4 C 16,8 C 5,1 km/h (1 Bft)
25.05.2014 22:00 15,6 C 60 % 1017,7 hPa 0,0 l/m 2,4 km/h (1 Bft) NO 0,00 h 0,025 mm 0,0 UV-I 0 W/m 7,7 C 15,6 C 4,6 km/h (1 Bft)
25.05.2014 23:00 14,8 C 61 % 1017,7 hPa 0,0 l/m 3,3 km/h (1 Bft) O-NO 0,00 h 0,051 mm 0,0 UV-I 0 W/m 7,4 C 14,8 C 6,5 km/h (2 Bft)
Min-Datum _ 19.05.14 21.05.14 22.05.14 - 19.05.14 - - - - - 25.05.14 19.05.14 19.05.14
_ Min-Zeit 03:33 14:42 21:01 - 00:00 - - - - - 12:49 04:49 00:00
Minimum _ 0,0 C 26 % 1005,5 hPa - 0,0 km/h (0 Bft) - - - - - 3,4 C 4,4 C 0,0 km/h (0 Bft)
Max-Datum _ 22.05.14 19.05.14 25.05.14 24.05.14 23.05.14 - 24.05.14 21.05.14 24.05.14 20.05.14 20.05.14 22.05.14 23.05.14
_ Max-Zeit 16:01 06:53 09:32 11:59 12:45 - 08:04 14:00 13:41 12:56 11:47 16:25 12:51
Maximum _ 28,9 C 97 % 1021,0 hPa 6,8 l/m 20,9 km/h
W-SW (4 Bft)
- 0,08 h 0,660 mm 8,0 UV-I 1232 W/m 15,6 C 28,9 C 30,6 km/h
W (5 Bft)
Durchschnitt _ 17,0 C 70 % 1012,4 hPa #15,6 l/m 3,7 km/h (1 Bft) O #84:17 h #28,903 mm 3,2 UV-I 378 W/m 10,7 C 16,8 C 6,4 km/h (2 Bft)